Middleway, West Virginia
Current Conditions -  °F | °C
As of 6:53 AM on Sunday 23 Nov 2014 (Local Time) from KMRB Reporting Station
Clear Clear  
Wind Chill: 33°   Ceiling: Unl
Heat Index: 33°   Visibility: 10mi
Dew Point: 21°   Wind: 0mph
Humidity: 61%   Direction: NA
Pressure: 30.19"   Gusts: NA
Location:  39.3256°N, 77.947°W
Report Text: KMRB 231153Z AUTO 00000KT 10SM CLR 01/M06 A3019 RMK AO2 SLP228 T00061061 10067 20006 53010 TSNO
Loading
Personal Weather Stations






























Interactive Weather Map New forecast layout! Learn more

10-Day Weather Forecast

Advertisements
Track Severe Weather on mobile